Flight Track Log - Related Links

Times and Time Zones

All times are in EDT time to prevent confusion due to time zone crossing. See the N507PD flight status page for this flight to view local times or setup timezone preferences in your user account.

Time Position Orientation Groundspeed Altitude Reporting Facility
EDT Latitude Longitude Course Direction KTS MPH feet Rate Location/Type
Thu 08:34:46 PM 38.5833 -90.1833 111° Southeast 189 217 1,700  Level Gateway (St. Louis) TRACON
Thu 08:35:46 PM 38.5347 -90.2214 211° Southwest 246 283 3,300 3,443 Climbing Kansas City Center
Thu 08:36:48 PM 38.5211 -90.1447 103° East 246 283 8,700 3,902 Climbing Kansas City Center
Thu 08:37:49 PM 38.4958 -90.0522 109° East 264 304 11,300 2,537 Climbing Kansas City Center
Thu 08:38:51 PM 38.4422 -89.9842 135° Southeast 287 330 13,900 2,855 Climbing Kansas City Center
Thu 08:39:53 PM 38.3728 -89.8936 134° Southeast 297 342 17,200 2,732 Climbing Kansas City Center
Thu 08:40:00 PM 38.6943 -90.1569 111° Southeast  Level FlightAware Approximate
Thu 08:40:54 PM 38.3147 -89.8225 136° Southeast 294 338 19,500  Level Kansas City Center
Thu 08:41:56 PM 38.2550 -89.7536 138° Southeast 291 335 21,800 2,129 Climbing Kansas City Center
Thu 08:42:58 PM 38.2008 -89.6739 131° Southeast 295 339 23,900 1,951 Climbing Kansas City Center
Thu 08:43:59 PM 38.1850 -89.5614 100° East 303 349 25,800 1,512 Climbing Kansas City Center
Thu 08:45:01 PM 38.1767 -89.4497 95° East 317 365 27,000 581 Climbing Kansas City Center
Thu 08:46:03 PM 38.1814 -89.3222 87° East 357 411 27,000  Level Kansas City Center
Thu 08:47:04 PM 38.1861 -89.1731 88° East 390 449 27,000  Level Kansas City Center
Thu 08:48:06 PM 38.1897 -89.0297 88° East 404 465 27,000  Level Kansas City Center
Thu 08:49:07 PM 38.1947 -88.8850 87° East 408 470 27,000  Level Kansas City Center
Thu 08:50:09 PM 38.1953 -88.7414 90° East 411 473 27,000  Level Kansas City Center
Thu 08:51:11 PM 38.1983 -88.5933 88° East 408 470 27,000  Level Kansas City Center
Thu 08:52:12 PM 38.2022 -88.4475 88° East 412 474 27,000  Level Kansas City Center
Thu 08:53:14 PM 38.2047 -88.3008 89° East 414 476 27,000  Level Kansas City Center
Thu 08:54:15 PM 38.2083 -88.1547 88° East 413 475 27,000  Level Kansas City Center
Thu 08:55:17 PM 38.2117 -88.0081 88° East 414 476 27,000 -275 Level Kansas City Center
Thu 08:56:04 PM 38.2150 -87.8903 88° East 417 480 26,500 -1,111 Descending Indianapolis Center
Thu 08:57:05 PM 38.2183 -87.7403 88° East 422 486 25,000 -1,805 Descending Indianapolis Center
Thu 08:58:07 PM 38.2203 -87.5622 89° East 420 483 22,800 -2,000 Descending Indianapolis Center
Thu 08:59:08 PM 38.2219 -87.4256 89° East 393 452 20,900 -1,805 Descending Indianapolis Center
Thu 09:00:10 PM 38.2236 -87.2933 89° East 377 434 19,100 -1,610 Descending Indianapolis Center
Thu 09:01:11 PM 38.2253 -87.1661 89° East 365 420 17,600 -1,525 Descending Indianapolis Center
Thu 09:02:12 PM 38.2258 -87.0453 90° East 354 407 16,000 -1,512 Descending Indianapolis Center
Thu 09:03:14 PM 38.2275 -86.9267 89° East 344 396 14,500 -1,659 Descending Indianapolis Center
Thu 09:04:15 PM 38.2292 -86.7861 89° East 335 386 12,600 -1,721 Descending Indianapolis Center
Thu 09:05:16 PM 38.2294 -86.6683 90° East 332 382 11,000 -829 Descending Indianapolis Center
Thu 09:06:18 PM 38.2292 -86.5589 90° East 315 362 10,900 -244 Descending Indianapolis Center
Thu 09:07:19 PM 38.2233 -86.4458 94° East 318 366 10,500 -738 Descending Indianapolis Center
Thu 09:08:20 PM 38.2058 -86.3350 101° East 321 369 9,400 -1,122 Descending Indianapolis Center
Thu 09:09:22 PM 38.1933 -86.2367 99° East 287 330 8,200 -1,171 Descending Indianapolis Center
Thu 09:10:23 PM 38.1808 -86.1414 99° East 277 319 7,000 -1,082 Descending Indianapolis Center
Thu 09:11:24 PM 38.1681 -86.0478 100° East 271 312 6,000 -738 Descending Indianapolis Center
Thu 09:12:25 PM 38.1594 -85.9544 97° East 267 307 5,500 -683 Descending Indianapolis Center
Thu 09:13:27 PM 38.1756 -85.8567 78° East 273 314 4,600 -780 Descending Indianapolis Center
Thu 09:14:28 PM 38.1875 -85.7647 81° East 271 312 3,900 -780 Descending Indianapolis Center
Thu 09:15:30 PM 38.1989 -85.6808 80° East 257 296 3,000 -488 Descending Indianapolis Center
Thu 09:16:31 PM 38.2094 -85.5894 82° East 247 284 2,900 -674 Descending Indianapolis Center
Thu 09:18:28 PM 38.2333 -85.6333 305° West 117 135 1,000 -974 Descending Louisville TRACON
Thu 09:20:00 PM 38.2167 -85.6500 332° Northwest  Level FlightAware Approximate

Login

Don't have an account? Register now (free) for customized features, flight alerts, and more!